^^
Saratoga-Weather Station Historical Data
Daily Summary for March 10, 2021 Units:  Metric    English   Both
Daily Weekly Monthly Yearly Custom
  High: Low: Average:
Temperature: 25.2 °C 13.5 °C 18.5 °C
Dew Point: 17.3 °C 12.1 °C 14.4 °C
Humidity: 94% 50% 78%
Wind Speed: 25.9km/h 0km/h 1.7km/h
Wind Gust: 29km/h - -
Wind- - SSW
Pressure: 1019.3 hPa 1011.9 hPa -
Precipitation: 5.6 mm    
Historical Graphs
 
 
Tabular Data for March 10, 2021
Time Temperature Dew Point Pressure Wind Wind Speed Wind Gust Humidity Rainfall Rate (Hourly) solar
00:02 17.9 °C 14 °C 1019.3 hPa Calm     78% 0.0 mm 0 W/m2
00:07 17.7 °C 13.8 °C 1019.3 hPa Calm     78% 0.0 mm 0 W/m2
00:12 17.6 °C 13.9 °C 1019.3 hPa SW 4.7 km/h 4.8 km/h 79% 0.0 mm 0 W/m2
00:17 17.4 °C 13.5 °C 1019.3 hPa Calm   3.2 km/h 78% 0.0 mm 0 W/m2
00:22 17.4 °C 13.7 °C 1019.3 hPa Calm   1.6 km/h 79% 0.0 mm 0 W/m2
00:27 17.3 °C 13.6 °C 1019.3 hPa Calm     79% 0.0 mm 0 W/m2
00:32 17.2 °C 13.5 °C 1019.3 hPa Calm     79% 0.0 mm 0 W/m2
00:37 17.1 °C 13.4 °C 1019.3 hPa Calm     79% 0.0 mm 0 W/m2
00:42 16.9 °C 13.4 °C 1019.3 hPa Calm     80% 0.0 mm 0 W/m2
00:47 16.8 °C 13.3 °C 1019.3 hPa Calm     80% 0.0 mm 0 W/m2
00:52 16.7 °C 13.4 °C 1019.3 hPa Calm     81% 0.0 mm 0 W/m2
00:57 16.6 °C 13.5 °C 1019.0 hPa Calm     82% 0.0 mm 0 W/m2
01:02 16.4 °C 13.3 °C 1019.0 hPa Calm     82% 0.0 mm 0 W/m2
01:07 16.3 °C 13.2 °C 1019.0 hPa Calm     82% 0.0 mm 0 W/m2
01:12 16.2 °C 13.1 °C 1019.0 hPa Calm     82% 0.0 mm 0 W/m2
01:17 16.1 °C 13.2 °C 1019.0 hPa Calm     83% 0.0 mm 0 W/m2
01:22 15.9 °C 13.2 °C 1019.0 hPa Calm     84% 0.0 mm 0 W/m2
01:27 15.8 °C 13.1 °C 1019.0 hPa Calm     84% 0.0 mm 0 W/m2
01:32 15.7 °C 13 °C 1019.0 hPa Calm     84% 0.0 mm 0 W/m2
01:37 15.6 °C 12.9 °C 1019.0 hPa Calm     84% 0.0 mm 0 W/m2
01:42 15.6 °C 13.1 °C 1019.0 hPa Calm     85% 0.0 mm 0 W/m2
01:47 15.5 °C 13 °C 1019.0 hPa Calm     85% 0.0 mm 0 W/m2
01:52 15.5 °C 13.2 °C 1019.0 hPa Calm     86% 0.0 mm 0 W/m2
01:57 15.5 °C 13.2 °C 1019.0 hPa Calm     86% 0.0 mm 0 W/m2
02:02 15.5 °C 13.2 °C 1019.0 hPa Calm     86% 0.0 mm 0 W/m2
02:07 15.4 °C 13.1 °C 1019.0 hPa Calm     86% 0.0 mm 0 W/m2
02:12 15.4 °C 13.1 °C 1019.0 hPa Calm     86% 0.0 mm 0 W/m2
02:17 15.4 °C 13.2 °C 1019.0 hPa Calm     87% 0.0 mm 0 W/m2
02:22 15.4 °C 13.1 °C 1018.6 hPa Calm     86% 0.0 mm 0 W/m2
02:27 15.3 °C 13.1 °C 1018.6 hPa Calm     87% 0.0 mm 0 W/m2
02:33 15.3 °C 13.1 °C 1018.6 hPa Calm     87% 0.0 mm 0 W/m2
02:38 15.2 °C 13 °C 1018.6 hPa Calm     87% 0.0 mm 0 W/m2
02:43 15.2 °C 13 °C 1018.6 hPa Calm     87% 0.0 mm 0 W/m2
02:48 15.1 °C 13 °C 1018.6 hPa Calm     87% 0.0 mm 0 W/m2
02:53 15 °C 12.9 °C 1018.6 hPa Calm     87% 0.0 mm 0 W/m2
02:58 14.9 °C 12.8 °C 1018.3 hPa Calm     87% 0.0 mm 0 W/m2
03:03 14.8 °C 12.7 °C 1018.3 hPa Calm     87% 0.0 mm 0 W/m2
03:08 14.7 °C 12.6 °C 1018.6 hPa Calm     87% 0.0 mm 0 W/m2
03:13 14.7 °C 12.6 °C 1018.3 hPa Calm     87% 0.0 mm 0 W/m2
03:18 14.6 °C 12.6 °C 1018.3 hPa Calm     88% 0.0 mm 0 W/m2
03:23 14.5 °C 12.5 °C 1018.3 hPa Calm     88% 0.0 mm 0 W/m2
03:28 14.5 °C 12.5 °C 1018.3 hPa Calm     88% 0.0 mm 0 W/m2
03:33 14.4 °C 12.4 °C 1018.3 hPa Calm     88% 0.0 mm 0 W/m2
03:38 14.3 °C 12.3 °C 1018.3 hPa Calm     88% 0.0 mm 0 W/m2
03:43 14.3 °C 12.3 °C 1018.0 hPa Calm     88% 0.0 mm 0 W/m2
03:48 14.2 °C 12.2 °C 1018.0 hPa Calm     88% 0.0 mm 0 W/m2
03:53 14.1 °C 12.3 °C 1018.0 hPa Calm     89% 0.0 mm 0 W/m2
03:58 14.1 °C 12.3 °C 1018.0 hPa Calm     89% 0.0 mm 0 W/m2
04:03 13.9 °C 12.1 °C 1018.0 hPa Calm     89% 0.0 mm 0 W/m2
04:08 13.9 °C 12.3 °C 1017.6 hPa Calm     90% 0.0 mm 0 W/m2
04:13 13.9 °C 12.3 °C 1017.6 hPa Calm     90% 0.0 mm 0 W/m2
04:18 13.8 °C 12.2 °C 1017.6 hPa Calm     90% 0.0 mm 0 W/m2
04:23 13.8 °C 12.2 °C 1017.6 hPa Calm     90% 0.0 mm 0 W/m2
04:28 13.8 °C 12.2 °C 1017.6 hPa Calm     90% 0.0 mm 0 W/m2
04:33 13.7 °C 12.3 °C 1017.6 hPa Calm     91% 0.0 mm 0 W/m2
04:38 13.7 °C 12.3 °C 1017.6 hPa Calm     91% 0.0 mm 0 W/m2
04:43 13.7 °C 12.3 °C 1017.6 hPa Calm     91% 0.0 mm 0 W/m2
04:48 13.7 °C 12.4 °C 1017.3 hPa Calm     92% 0.0 mm 0 W/m2
04:53 13.8 °C 12.5 °C 1017.6 hPa Calm     92% 0.0 mm 0 W/m2
04:58 13.8 °C 12.5 °C 1017.3 hPa Calm     92% 0.0 mm 0 W/m2
05:03 13.9 °C 12.6 °C 1017.3 hPa SW 1.4 km/h 3.2 km/h 92% 0.0 mm 0 W/m2
05:08 14 °C 12.7 °C 1017.3 hPa Calm   1.6 km/h 92% 0.0 mm 0 W/m2
05:13 14.1 °C 12.8 °C 1017.3 hPa Calm   3.2 km/h 92% 0.0 mm 0 W/m2
05:18 14.1 °C 12.7 °C 1017.3 hPa Calm     91% 0.0 mm 0 W/m2
05:23 14 °C 12.6 °C 1017.3 hPa Calm     91% 0.0 mm 0 W/m2
05:28 13.9 °C 12.5 °C 1017.3 hPa Calm     91% 0.0 mm 0 W/m2
05:33 13.9 °C 12.5 °C 1017.3 hPa Calm     91% 0.0 mm 0 W/m2
05:38 13.8 °C 12.4 °C 1017.3 hPa Calm     91% 0.0 mm 0 W/m2
05:43 13.8 °C 12.4 °C 1017.3 hPa Calm     91% 0.0 mm 5 W/m2
05:48 13.7 °C 12.3 °C 1017.3 hPa Calm     91% 0.0 mm 7 W/m2
05:53 13.6 °C 12.2 °C 1016.9 hPa Calm     91% 0.0 mm 11 W/m2
05:58 13.6 °C 12.3 °C 1017.3 hPa Calm     92% 0.0 mm 14 W/m2
06:03 13.5 °C 12.2 °C 1017.3 hPa Calm     92% 0.0 mm 19 W/m2
06:08 13.5 °C 12.2 °C 1017.3 hPa SW 3.2 km/h 3.2 km/h 92% 0.0 mm 25 W/m2
06:13 13.6 °C 12.5 °C 1017.3 hPa West 1.4 km/h 4.8 km/h 93% 0.0 mm 26 W/m2
06:18 13.6 °C 12.5 °C 1017.3 hPa Calm   1.6 km/h 93% 0.0 mm 28 W/m2
06:23 13.7 °C 12.6 °C 1016.9 hPa Calm   4.8 km/h 93% 0.0 mm 28 W/m2
06:28 13.7 °C 12.6 °C 1017.3 hPa Calm     93% 0.0 mm 28 W/m2
06:33 13.8 °C 12.5 °C 1017.3 hPa Calm     92% 0.0 mm 30 W/m2
06:38 13.8 °C 12.5 °C 1017.3 hPa Calm     92% 0.0 mm 32 W/m2
06:43 13.8 °C 12.5 °C 1017.3 hPa Calm     92% 0.0 mm 32 W/m2
06:48 13.8 °C 12.5 °C 1017.3 hPa Calm     92% 0.0 mm 33 W/m2
06:53 13.9 °C 12.6 °C 1017.3 hPa Calm     92% 0.0 mm 33 W/m2
06:58 13.9 °C 12.8 °C 1017.3 hPa Calm     93% 0.0 mm 35 W/m2
07:03 13.9 °C 12.8 °C 1017.3 hPa Calm     93% 0.0 mm 42 W/m2
07:08 14 °C 12.9 °C 1017.3 hPa Calm     93% 0.0 mm 47 W/m2
07:13 14.1 °C 13 °C 1017.3 hPa Calm     93% 0.0 mm 56 W/m2
07:18 14.2 °C 13.1 °C 1017.3 hPa Calm     93% 0.0 mm 58 W/m2
07:23 14.3 °C 13.2 °C 1017.3 hPa Calm     93% 0.0 mm 65 W/m2
07:28 14.4 °C 13.3 °C 1017.3 hPa Calm     93% 0.0 mm 67 W/m2
07:33 14.5 °C 13.4 °C 1017.3 hPa Calm     93% 0.0 mm 69 W/m2
07:38 14.7 °C 13.4 °C 1017.3 hPa Calm     92% 0.0 mm 76 W/m2
07:43 14.8 °C 13.5 °C 1017.3 hPa Calm   3.2 km/h 92% 0.0 mm 81 W/m2
07:48 15.1 °C 13.8 °C 1017.3 hPa Calm     92% 0.0 mm 128 W/m2
07:53 15.3 °C 13.8 °C 1017.3 hPa Calm     91% 0.0 mm 232 W/m2
07:58 15.6 °C 14.1 °C 1017.3 hPa Calm   1.6 km/h 91% 0.0 mm 214 W/m2
08:03 15.9 °C 14.3 °C 1017.3 hPa Calm   1.6 km/h 90% 0.0 mm 186 W/m2
08:09 16.2 °C 14.4 °C 1017.3 hPa Calm     89% 0.0 mm 178 W/m2
08:14 16.4 °C 14.4 °C 1017.3 hPa WNW 1.4 km/h 3.2 km/h 88% 0.0 mm 116 W/m2
08:19 16.6 °C 14.4 °C 1017.3 hPa Calm     87% 0.0 mm 79 W/m2
08:24 16.9 °C 14.5 °C 1017.3 hPa Calm   3.2 km/h 86% 0.0 mm 95 W/m2
08:29 17.1 °C 14.6 °C 1017.3 hPa WNW 1.4 km/h 1.6 km/h 85% 0.0 mm 97 W/m2
08:34 17.2 °C 14.7 °C 1016.9 hPa Calm   1.6 km/h 85% 0.0 mm 104 W/m2
08:39 17.5 °C 14.9 °C 1016.9 hPa Calm     85% 0.0 mm 113 W/m2
08:44 17.8 °C 15.2 °C 1016.9 hPa North 1.4 km/h 1.6 km/h 85% 0.0 mm 113 W/m2
08:49 18.1 °C 15.2 °C 1016.9 hPa NE 1.4 km/h 1.6 km/h 83% 0.0 mm 118 W/m2
08:54 18.4 °C 15.3 °C 1016.9 hPa ESE 3.2 km/h 3.2 km/h 82% 0.0 mm 134 W/m2
08:59 18.6 °C 15.3 °C 1016.9 hPa Calm   3.2 km/h 81% 0.0 mm 158 W/m2
09:04 18.8 °C 15.1 °C 1016.9 hPa Calm   3.2 km/h 79% 0.0 mm 181 W/m2
09:09 19 °C 15.3 °C 1016.9 hPa ENE 1.4 km/h 1.6 km/h 79% 0.0 mm 244 W/m2
09:14 19.3 °C 15.2 °C 1016.9 hPa ENE 3.2 km/h 6.4 km/h 77% 0.0 mm 336 W/m2
09:19 19.5 °C 15.2 °C 1016.9 hPa NE 3.2 km/h 4.8 km/h 76% 0.0 mm 376 W/m2
09:24 19.3 °C 14.8 °C 1016.9 hPa Calm   6.4 km/h 75% 0.0 mm 274 W/m2
09:29 19.3 °C 15 °C 1016.9 hPa Calm   3.2 km/h 76% 0.0 mm 250 W/m2
09:34 19.3 °C 15.2 °C 1016.9 hPa NE 1.4 km/h 3.2 km/h 77% 0.0 mm 234 W/m2
09:39 19.4 °C 15.1 °C 1016.9 hPa Calm   3.2 km/h 76% 0.0 mm 251 W/m2
09:44 19.5 °C 15.4 °C 1016.6 hPa Calm   4.8 km/h 77% 0.0 mm 250 W/m2
09:49 19.6 °C 15.3 °C 1016.6 hPa Calm   1.6 km/h 76% 0.0 mm 248 W/m2
09:54 19.4 °C 15.1 °C 1016.6 hPa Calm   1.6 km/h 76% 0.0 mm 163 W/m2
09:59 19.4 °C 15.5 °C 1016.6 hPa East 4.7 km/h 4.8 km/h 78% 0.0 mm 221 W/m2
10:04 19.6 °C 15.5 °C 1016.6 hPa East 3.2 km/h 6.4 km/h 77% 0.0 mm 272 W/m2
10:09 19.7 °C 15.6 °C 1016.6 hPa Calm   3.2 km/h 77% 0.0 mm 211 W/m2
10:14 19.9 °C 15.5 °C 1016.3 hPa East 1.4 km/h 6.4 km/h 76% 0.0 mm 197 W/m2
10:19 20.3 °C 15.5 °C 1016.3 hPa ESE 6.4 km/h 6.4 km/h 74% 0.0 mm 566 W/m2
10:24 20.6 °C 15.8 °C 1016.3 hPa NE 1.4 km/h 4.8 km/h 74% 0.0 mm 462 W/m2
10:29 20.9 °C 15.9 °C 1016.3 hPa Calm   4.8 km/h 73% 0.0 mm 541 W/m2
10:34 21.2 °C 15.9 °C 1016.3 hPa East 4.7 km/h 4.8 km/h 72% 0.0 mm 417 W/m2
10:39 21.2 °C 15.5 °C 1016.3 hPa East 3.2 km/h 4.8 km/h 70% 0.0 mm 376 W/m2
10:44 21.3 °C 15.4 °C 1016.3 hPa NNE 1.4 km/h 6.4 km/h 69% 0.0 mm 527 W/m2
10:49 21.6 °C 15.2 °C 1016.3 hPa ESE 1.4 km/h 6.4 km/h 67% 0.0 mm 679 W/m2
10:54 22 °C 15.1 °C 1016.3 hPa Calm     65% 0.0 mm 710 W/m2
10:59 22.3 °C 15.9 °C 1016.3 hPa SE 1.4 km/h 6.4 km/h 67% 0.0 mm 705 W/m2
11:04 22.4 °C 15.5 °C 1016.3 hPa ESE 3.2 km/h 8 km/h 65% 0.0 mm 355 W/m2
11:09 22.2 °C 15.5 °C 1015.9 hPa SSE 1.4 km/h 3.2 km/h 66% 0.0 mm 323 W/m2
11:14 22.1 °C 15.4 °C 1015.9 hPa NNW 1.4 km/h 4.8 km/h 66% 0.0 mm 320 W/m2
11:19 22.1 °C 15.4 °C 1015.9 hPa Calm   1.6 km/h 66% 0.0 mm 650 W/m2
11:24 22.3 °C 15.2 °C 1015.9 hPa WNW 3.2 km/h 4.8 km/h 64% 0.0 mm 322 W/m2
11:29 22.3 °C 15.2 °C 1015.9 hPa East 4.7 km/h 16.1 km/h 64% 0.0 mm 369 W/m2
11:34 22.1 °C 15.2 °C 1015.9 hPa NW 3.2 km/h 3.2 km/h 65% 0.0 mm 461 W/m2
11:39 22.1 °C 15.4 °C 1015.6 hPa Calm   16.1 km/h 66% 0.0 mm 499 W/m2
11:44 22.2 °C 15.1 °C 1015.6 hPa WNW 1.4 km/h 3.2 km/h 64% 0.0 mm 325 W/m2
11:49 22.2 °C 15.1 °C 1015.6 hPa WNW 3.2 km/h 4.8 km/h 64% 0.0 mm 399 W/m2
11:54 22.2 °C 15.3 °C 1015.6 hPa East 1.4 km/h 4.8 km/h 65% 0.0 mm 350 W/m2
11:59 22.3 °C 15.4 °C 1015.6 hPa Calm   1.6 km/h 65% 0.0 mm 294 W/m2
12:04 22.4 °C 15.3 °C 1015.6 hPa Calm   1.6 km/h 64% 0.0 mm 366 W/m2
12:09 22.4 °C 15.3 °C 1015.6 hPa WSW 1.4 km/h 1.6 km/h 64% 0.0 mm 383 W/m2
12:14 22.5 °C 15.3 °C 1015.2 hPa West 4.7 km/h 6.4 km/h 64% 0.0 mm 390 W/m2
12:19 22.4 °C 15 °C 1015.2 hPa Calm   1.6 km/h 63% 0.0 mm 485 W/m2
12:24 22.4 °C 15.7 °C 1015.2 hPa West 1.4 km/h 4.8 km/h 66% 0.0 mm 512 W/m2
12:29 22.5 °C 15.1 °C 1015.2 hPa West 1.4 km/h 3.2 km/h 63% 0.0 mm 512 W/m2
12:34 22.8 °C 15.6 °C 1015.2 hPa Calm   4.8 km/h 64% 0.0 mm 694 W/m2
12:39 22.9 °C 14.7 °C 1015.2 hPa Calm   3.2 km/h 60% 0.0 mm 387 W/m2
12:44 23.1 °C 15.2 °C 1015.2 hPa East 3.2 km/h 6.4 km/h 61% 0.0 mm 471 W/m2
12:49 23.2 °C 15 °C 1015.2 hPa Calm   3.2 km/h 60% 0.0 mm 278 W/m2
12:54 23.3 °C 14.6 °C 1015.2 hPa ESE 3.2 km/h 3.2 km/h 58% 0.0 mm 236 W/m2
12:59 23.2 °C 14.5 °C 1015.2 hPa ENE 1.4 km/h 6.4 km/h 58% 0.0 mm 232 W/m2
13:04 23.1 °C 14.9 °C 1014.9 hPa SSW 1.4 km/h 3.2 km/h 60% 0.0 mm 218 W/m2
13:09 23 °C 15.3 °C 1014.9 hPa Calm   6.4 km/h 62% 0.0 mm 243 W/m2
13:14 22.9 °C 14.7 °C 1014.9 hPa NW 3.2 km/h 4.8 km/h 60% 0.0 mm 371 W/m2
13:19 22.9 °C 15.2 °C 1014.9 hPa West 3.2 km/h 3.2 km/h 62% 0.0 mm 828 W/m2
13:24 23 °C 14.8 °C 1014.9 hPa North 1.4 km/h 1.6 km/h 60% 0.0 mm 360 W/m2
13:29 23.2 °C 14.2 °C 1014.9 hPa NE 1.4 km/h 6.4 km/h 57% 0.0 mm 362 W/m2
13:34 23.2 °C 14.5 °C 1014.6 hPa Calm   4.8 km/h 58% 0.0 mm 302 W/m2
13:39 23.3 °C 14.3 °C 1014.6 hPa East 1.4 km/h 4.8 km/h 57% 0.0 mm 336 W/m2
13:44 23.7 °C 14.1 °C 1014.6 hPa ENE 1.4 km/h 4.8 km/h 55% 0.0 mm 591 W/m2
13:49 23.9 °C 13.4 °C 1014.6 hPa East 1.4 km/h 4.8 km/h 52% 0.0 mm 387 W/m2
13:55 24.3 °C 14.7 °C 1014.2 hPa East 1.4 km/h 3.2 km/h 55% 0.0 mm 554 W/m2
14:00 24.4 °C 15.1 °C 1014.2 hPa NNW 1.4 km/h 3.2 km/h 56% 0.0 mm 357 W/m2
14:05 24.4 °C 14.8 °C 1014.2 hPa WNW 3.2 km/h 6.4 km/h 55% 0.0 mm 877 W/m2
14:10 24.3 °C 14.4 °C 1014.2 hPa WNW 6.4 km/h 6.4 km/h 54% 0.0 mm 524 W/m2
14:15 24.2 °C 14 °C 1014.2 hPa Calm   3.2 km/h 53% 0.0 mm 383 W/m2
14:20 24.3 °C 14.4 °C 1013.9 hPa SSE 1.4 km/h 3.2 km/h 54% 0.0 mm 536 W/m2
14:25 24.5 °C 15.1 °C 1013.9 hPa NW 3.2 km/h 4.8 km/h 56% 0.0 mm 429 W/m2
14:30 24.6 °C 14.7 °C 1013.9 hPa East 1.4 km/h 6.4 km/h 54% 0.0 mm 592 W/m2
14:35 24.4 °C 13.9 °C 1013.9 hPa Calm   4.8 km/h 52% 0.0 mm 383 W/m2
14:40 24.4 °C 14.2 °C 1013.9 hPa ENE 4.7 km/h 8 km/h 53% 0.0 mm 360 W/m2
14:45 24.4 °C 13.6 °C 1013.5 hPa East 4.7 km/h 6.4 km/h 51% 0.0 mm 283 W/m2
14:50 24.4 °C 15.1 °C 1013.5 hPa ENE 1.4 km/h 8 km/h 56% 0.0 mm 299 W/m2
14:55 24.4 °C 14.5 °C 1013.5 hPa Calm   6.4 km/h 54% 0.0 mm 350 W/m2
15:00 24.6 °C 14.4 °C 1013.5 hPa WSW 1.4 km/h 4.8 km/h 53% 0.0 mm 323 W/m2
15:05 24.4 °C 14.2 °C 1013.5 hPa Calm   1.6 km/h 53% 0.0 mm 353 W/m2
15:10 24.5 °C 15.4 °C 1013.5 hPa Calm   3.2 km/h 57% 0.0 mm 406 W/m2
15:15 24.6 °C 14.1 °C 1013.5 hPa East 3.2 km/h 11.3 km/h 52% 0.0 mm 345 W/m2
15:20 24.6 °C 14.4 °C 1013.5 hPa Calm   6.4 km/h 53% 0.0 mm 396 W/m2
15:25 24.7 °C 14.5 °C 1013.2 hPa West 3.2 km/h 9.7 km/h 53% 0.0 mm 432 W/m2
15:30 24.9 °C 14.4 °C 1013.2 hPa Calm   1.6 km/h 52% 0.0 mm 392 W/m2
15:40 25.2 °C 14.6 °C 1013.2 hPa Calm   4.8 km/h 52% 0.0 mm 329 W/m2
15:45 24.9 °C 13.8 °C 1013.2 hPa Calm   8 km/h 50% 0.0 mm 313 W/m2
15:50 25 °C 14.8 °C 1013.2 hPa ENE 4.7 km/h 6.4 km/h 53% 0.0 mm 257 W/m2
15:55 24.8 °C 14.3 °C 1012.9 hPa NE 1.4 km/h 6.4 km/h 52% 0.0 mm 197 W/m2
16:00 24.6 °C 14.1 °C 1012.9 hPa ESE 1.4 km/h 3.2 km/h 52% 0.0 mm 251 W/m2
16:05 24.5 °C 15.1 °C 1012.9 hPa SE 3.2 km/h 3.2 km/h 56% 0.0 mm 220 W/m2
16:10 24.4 °C 14.2 °C 1012.9 hPa Calm   3.2 km/h 53% 0.0 mm 135 W/m2
16:15 24.4 °C 15.9 °C 1012.9 hPa Calm   1.6 km/h 59% 0.0 mm 125 W/m2
16:20 24.3 °C 16 °C 1012.9 hPa Calm   3.2 km/h 60% 0.0 mm 88 W/m2
16:25 24.2 °C 16.5 °C 1012.9 hPa Calm     62% 0.0 mm 74 W/m2
16:30 24 °C 16.8 °C 1012.9 hPa SE 1.4 km/h 1.6 km/h 64% 0.0 mm 62 W/m2
16:35 23.8 °C 16.6 °C 1012.9 hPa SE 1.4 km/h 1.6 km/h 64% 0.0 mm 72 W/m2
16:40 23.6 °C 16.4 °C 1012.5 hPa SE 1.4 km/h 3.2 km/h 64% 0.0 mm 105 W/m2
16:45 23.3 °C 16.6 °C 1012.5 hPa Calm   1.6 km/h 66% 0.0 mm 105 W/m2
16:50 23.2 °C 16.3 °C 1012.5 hPa Calm     65% 0.0 mm 141 W/m2
16:55 23.2 °C 16.7 °C 1012.5 hPa Calm   1.6 km/h 67% 0.0 mm 178 W/m2
17:00 23.2 °C 16.7 °C 1012.5 hPa Calm     67% 0.0 mm 243 W/m2
17:05 23.2 °C 15.5 °C 1012.5 hPa Calm     62% 0.0 mm 216 W/m2
17:10 23.4 °C 15.7 °C 1012.2 hPa Calm     62% 0.0 mm 200 W/m2
17:15 23.6 °C 16.9 °C 1012.2 hPa Calm   3.2 km/h 66% 0.0 mm 292 W/m2
17:20 23.7 °C 15.2 °C 1012.2 hPa Calm     59% 0.0 mm 234 W/m2
17:25 24 °C 16.5 °C 1011.9 hPa Calm   3.2 km/h 63% 0.0 mm 250 W/m2
17:30 24.1 °C 15 °C 1011.9 hPa Calm     57% 0.0 mm 315 W/m2
17:35 24.3 °C 16 °C 1011.9 hPa SSE 1.4 km/h 3.2 km/h 60% 0.0 mm 160 W/m2
17:40 24.3 °C 16 °C 1011.9 hPa Calm     60% 0.0 mm 105 W/m2
17:45 24.3 °C 16.6 °C 1011.9 hPa Calm   1.6 km/h 62% 0.0 mm 84 W/m2
17:50 24.1 °C 17.3 °C 1011.9 hPa Calm     66% 0.0 mm 76 W/m2
17:55 23.8 °C 16.6 °C 1011.9 hPa WSW 1.4 km/h 3.2 km/h 64% 0.0 mm 63 W/m2
18:00 23.6 °C 17.3 °C 1011.9 hPa WSW 1.4 km/h 1.6 km/h 68% 0.0 mm 53 W/m2
18:05 23.3 °C 17.3 °C 1011.9 hPa Calm   1.6 km/h 69% 0.0 mm 40 W/m2
18:10 23.1 °C 16.9 °C 1011.9 hPa Calm   1.6 km/h 68% 0.0 mm 33 W/m2
18:15 22.7 °C 16.5 °C 1011.9 hPa WSW 1.4 km/h 4.8 km/h 68% 0.0 mm 28 W/m2
18:20 22.3 °C 16.3 °C 1012.2 hPa West 3.2 km/h 6.4 km/h 69% 0.0 mm 21 W/m2
18:25 21.6 °C 16.1 °C 1012.5 hPa West 4.7 km/h 9.7 km/h 71% 0.5 mm 23 W/m2
18:30 20.7 °C 16.1 °C 1012.5 hPa West 6.4 km/h 6.4 km/h 75% 0.5 mm 19 W/m2
18:35 20 °C 16 °C 1012.9 hPa WNW 3.2 km/h 9.7 km/h 78% 0.5 mm 16 W/m2
18:40 19.6 °C 16.1 °C 1012.9 hPa West 4.7 km/h 9.7 km/h 80% 1.3 mm 12 W/m2
18:45 19.2 °C 16.1 °C 1012.9 hPa WNW 6.4 km/h 11.3 km/h 82% 1.5 mm 12 W/m2
18:50 18.7 °C 15.8 °C 1013.2 hPa West 9.7 km/h 11.3 km/h 83% 2.0 mm 11 W/m2
18:55 18.3 °C 15.7 °C 1013.5 hPa NNW 25.9 km/h 29 km/h 85% 2.3 mm 9 W/m2
19:00 17.6 °C 15.4 °C 1013.5 hPa WSW 13 km/h 22.5 km/h 87% 3.0 mm 9 W/m2
19:05 17.1 °C 15.3 °C 1013.5 hPa WSW 25.7 km/h 25.7 km/h 89% 4.1 mm 16 W/m2
19:10 16.9 °C 15.4 °C 1013.5 hPa NNW 7.9 km/h 17.7 km/h 91% 4.3 mm 25 W/m2
19:15 16.8 °C 15.5 °C 1013.5 hPa West 9.7 km/h 17.7 km/h 92% 5.1 mm 44 W/m2
19:20 16.7 °C 15.4 °C 1013.2 hPa WSW 13 km/h 17.7 km/h 92% 5.3 mm 74 W/m2
19:25 16.7 °C 15.4 °C 1012.9 hPa NW 9.7 km/h 12.9 km/h 92% 5.1 mm 74 W/m2
19:30 16.7 °C 15.6 °C 1012.9 hPa WSW 6.4 km/h 12.9 km/h 93% 5.1 mm 54 W/m2
19:35 16.7 °C 15.6 °C 1012.9 hPa NW 3.2 km/h 12.9 km/h 93% 5.1 mm 46 W/m2
19:40 16.7 °C 15.6 °C 1013.2 hPa West 3.2 km/h 12.9 km/h 93% 4.3 mm 47 W/m2
19:45 16.8 °C 15.7 °C 1013.2 hPa NW 4.7 km/h 12.9 km/h 93% 4.1 mm 51 W/m2
19:50 16.8 °C 15.7 °C 1013.2 hPa WNW 6.4 km/h 12.9 km/h 93% 3.6 mm 40 W/m2
19:55 16.8 °C 15.7 °C 1013.2 hPa West 11.1 km/h 12.9 km/h 93% 3.3 mm 32 W/m2
20:01 16.8 °C 15.7 °C 1013.2 hPa WSW 13 km/h 12.9 km/h 93% 2.5 mm 25 W/m2
20:06 16.7 °C 15.6 °C 1013.5 hPa WNW 6.4 km/h 9.7 km/h 93% 1.5 mm 19 W/m2
20:11 16.6 °C 15.5 °C 1013.2 hPa WSW 6.4 km/h 14.5 km/h 93% 1.3 mm 18 W/m2
20:16 16.6 °C 15.3 °C 1013.2 hPa West 9.7 km/h 11.3 km/h 92% 0.5 mm 21 W/m2
20:21 16.4 °C 15.1 °C 1013.5 hPa West 4.7 km/h 11.3 km/h 92% 0.2 mm 18 W/m2
20:26 16.3 °C 15 °C 1013.5 hPa West 9.7 km/h 11.3 km/h 92% 0.2 mm 16 W/m2
20:31 16.3 °C 15 °C 1013.5 hPa WNW 6.4 km/h 12.9 km/h 92% 0.0 mm 18 W/m2
20:36 16.2 °C 14.9 °C 1013.2 hPa West 3.2 km/h 11.3 km/h 92% 0.0 mm 23 W/m2
20:41 16.2 °C 14.9 °C 1013.2 hPa West 6.4 km/h 11.3 km/h 92% 0.0 mm 26 W/m2
20:46 16.2 °C 14.9 °C 1013.2 hPa WSW 3.2 km/h 6.4 km/h 92% 0.0 mm 33 W/m2
20:51 16.2 °C 14.9 °C 1013.5 hPa SW 3.2 km/h 4.8 km/h 92% 0.0 mm 32 W/m2
20:56 16.1 °C 14.8 °C 1013.5 hPa SW 1.4 km/h 3.2 km/h 92% 0.0 mm 30 W/m2
21:01 16.1 °C 14.8 °C 1013.5 hPa Calm     92% 0.0 mm 30 W/m2
21:06 16.1 °C 15 °C 1013.5 hPa Calm     93% 0.0 mm 42 W/m2
21:11 16.2 °C 15.1 °C 1013.5 hPa Calm     93% 0.0 mm 37 W/m2
21:16 16.2 °C 15.2 °C 1013.5 hPa Calm     94% 0.0 mm 23 W/m2
21:21 16.2 °C 15.1 °C 1013.9 hPa Calm     93% 0.0 mm 21 W/m2
21:26 16.1 °C 15 °C 1013.9 hPa Calm     93% 0.0 mm 16 W/m2
21:31 15.9 °C 14.8 °C 1013.5 hPa Calm     93% 0.0 mm 9 W/m2
21:36 15.9 °C 14.8 °C 1013.9 hPa WSW 4.7 km/h 9.7 km/h 93% 0.0 mm 5 W/m2
21:41 15.8 °C 14.7 °C 1013.9 hPa West 9.7 km/h 12.9 km/h 93% 0.0 mm 5 W/m2
21:46 15.8 °C 14.7 °C 1013.9 hPa WSW 3.2 km/h 8 km/h 93% 0.0 mm 0 W/m2
21:51 15.8 °C 14.7 °C 1013.9 hPa West 6.4 km/h 8 km/h 93% 0.0 mm 0 W/m2
21:56 15.8 °C 14.7 °C 1014.2 hPa WNW 7.9 km/h 12.9 km/h 93% 0.0 mm 0 W/m2
22:01 15.8 °C 14.7 °C 1014.2 hPa NW 4.7 km/h 6.4 km/h 93% 0.0 mm 0 W/m2
22:06 15.8 °C 14.5 °C 1014.2 hPa WNW 1.4 km/h 4.8 km/h 92% 0.0 mm 0 W/m2
22:11 15.8 °C 14.5 °C 1014.2 hPa Calm   1.6 km/h 92% 0.0 mm 0 W/m2
22:16 15.9 °C 14.6 °C 1014.2 hPa Calm     92% 0.0 mm 0 W/m2
22:21 15.9 °C 14.8 °C 1014.2 hPa WNW 1.4 km/h 6.4 km/h 93% 0.0 mm 0 W/m2
22:26 15.8 °C 14.5 °C 1014.2 hPa Calm   1.6 km/h 92% 0.0 mm 0 W/m2
22:31 15.9 °C 14.8 °C 1014.2 hPa Calm     93% 0.0 mm 0 W/m2
22:37 15.8 °C 14.7 °C 1014.6 hPa NE 1.4 km/h 3.2 km/h 93% 0.0 mm 0 W/m2
22:42 15.7 °C 14.6 °C 1014.6 hPa Calm   1.6 km/h 93% 0.0 mm 0 W/m2
22:47 15.7 °C 14.6 °C 1014.6 hPa Calm   3.2 km/h 93% 0.0 mm 0 W/m2
22:52 15.7 °C 14.6 °C 1014.9 hPa WSW 4.7 km/h 4.8 km/h 93% 0.0 mm 0 W/m2
22:57 15.6 °C 14.5 °C 1014.9 hPa WSW 1.4 km/h 4.8 km/h 93% 0.0 mm 0 W/m2
Juneau County Weather
Compliments of Weather Underground - 2 mb